| time (UTC) | temp C | wind direction | speed KPH | gust KPH | rain 1hr cm | rain 24hr cm | rain mn cm | humidity % | barometer mb |
| 20260508152509 | 20 | 184 | 6.4 | 11.3 | 0.00 | 0.00 | 0.00 | 15 | 1023.5 |
| 20260508152005 | 19 | 185 | 3.2 | 4.8 | 0.00 | 0.00 | 0.00 | 16 | 1023.4 |
| 20260508151501 | 19 | 215 | 0.0 | 1.6 | 0.00 | 0.00 | 0.00 | 15 | 1023.5 |
| 20260508150958 | 19 | 168 | 3.2 | 6.4 | 0.00 | 0.00 | 0.00 | 16 | 1023.6 |
| 20260508150455 | 18 | 184 | 1.6 | 6.4 | 0.00 | 0.00 | 0.00 | 16 | 1023.5 |
| 20260508145950 | 18 | 209 | 1.6 | 6.4 | 0.00 | 0.00 | 0.00 | 16 | 1023.5 |
| 20260508145447 | 18 | 186 | 6.4 | 6.4 | 0.00 | 0.00 | 0.00 | 17 | 1023.4 |
| 20260508144944 | 18 | 133 | 4.8 | 9.7 | 0.00 | 0.00 | 0.00 | 17 | 1023.4 |
| 20260508144442 | 18 | 169 | 1.6 | 6.4 | 0.00 | 0.00 | 0.00 | 17 | 1023.5 |
| 20260508143939 | 17 | 158 | 3.2 | 9.7 | 0.00 | 0.00 | 0.00 | 17 | 1023.6 |
| 20260508143437 | 17 | 161 | 4.8 | 9.7 | 0.00 | 0.00 | 0.00 | 17 | 1023.4 |
| 20260508142932 | 17 | 163 | 6.4 | 9.7 | 0.00 | 0.00 | 0.00 | 17 | 1023.5 |
| 20260508142430 | 17 | 206 | 6.4 | 9.7 | 0.00 | 0.00 | 0.00 | 18 | 1023.5 |
| 20260508141926 | 17 | 172 | 8.0 | 11.3 | 0.00 | 0.00 | 0.00 | 18 | 1023.6 |
| 20260508141423 | 17 | 196 | 4.8 | 11.3 | 0.00 | 0.00 | 0.00 | 18 | 1023.5 |
| 20260508140921 | 17 | 193 | 6.4 | 9.7 | 0.00 | 0.00 | 0.00 | 18 | 1023.5 |
| 20260508140417 | 16 | 173 | 1.6 | 3.2 | 0.00 | 0.00 | 0.00 | 19 | 1023.4 |
| 20260508135913 | 16 | 206 | 1.6 | 3.2 | 0.00 | 0.00 | 0.00 | 20 | 1023.2 |
| 20260508135410 | 15 | 162 | 3.2 | 3.2 | 0.00 | 0.00 | 0.00 | 20 | 1023.2 |
| 20260508134907 | 14 | 194 | 1.6 | 4.8 | 0.00 | 0.00 | 0.00 | 21 | 1023.2 |
| 20260508134403 | 13 | 187 | 3.2 | 4.8 | 0.00 | 0.00 | 0.00 | 21 | 1023.4 |
| 20260508133900 | 13 | 185 | 3.2 | 3.2 | 0.00 | 0.00 | 0.00 | 21 | 1023.2 |
| 20260508133358 | 13 | 133 | 4.8 | 6.4 | 0.00 | 0.00 | 0.00 | 21 | 1023.0 |
| 20260508132854 | 13 | 154 | 3.2 | 6.4 | 0.00 | 0.00 | 0.00 | 21 | 1023.1 |
| 20260508132352 | 13 | 185 | 3.2 | 6.4 | 0.00 | 0.00 | 0.00 | 21 | 1023.1 |
| 20260508131849 | 12 | 165 | 3.2 | 4.8 | 0.00 | 0.00 | 0.00 | 21 | 1023.0 |
| 20260508131344 | 12 | 192 | 3.2 | 4.8 | 0.00 | 0.00 | 0.00 | 22 | 1023.0 |
| 20260508130841 | 11 | 152 | 4.8 | 4.8 | 0.00 | 0.00 | 0.00 | 22 | 1022.9 |
| 20260508130338 | 11 | 159 | 3.2 | 3.2 | 0.00 | 0.00 | 0.00 | 23 | 1022.9 |
| 20260508125834 | 10 | 170 | 1.6 | 3.2 | 0.00 | 0.00 | 0.00 | 23 | 1023.0 |
| 20260508125330 | 10 | 183 | 3.2 | 4.8 | 0.00 | 0.00 | 0.00 | 23 | 1022.9 |
| 20260508124828 | 10 | 179 | 4.8 | 6.4 | 0.00 | 0.00 | 0.00 | 23 | 1022.6 |
| 20260508124325 | 9 | 158 | 3.2 | 6.4 | 0.00 | 0.00 | 0.00 | 23 | 1022.9 |
| 20260508123823 | 9 | 115 | 6.4 | 9.7 | 0.00 | 0.00 | 0.00 | 23 | 1022.9 |
| 20260508123321 | 9 | 171 | 4.8 | 6.4 | 0.00 | 0.00 | 0.00 | 23 | 1022.6 |
| 20260508122817 | 8 | 166 | 3.2 | 6.4 | 0.00 | 0.00 | 0.00 | 24 | 1022.8 |
| 20260508122314 | 8 | 146 | 4.8 | 4.8 | 0.00 | 0.00 | 0.00 | 24 | 1022.6 |
| 20260508121812 | 7 | 187 | 4.8 | 4.8 | 0.00 | 0.00 | 0.00 | 25 | 1022.4 |
| 20260508121310 | 7 | 195 | 4.8 | 4.8 | 0.00 | 0.00 | 0.00 | 25 | 1022.5 |
| 20260508120807 | 7 | 184 | 4.8 | 4.8 | 0.00 | 0.00 | 0.00 | 25 | 1022.4 |
| 20260508120305 | 7 | 190 | 4.8 | 4.8 | 0.00 | 0.00 | 0.00 | 25 | 1022.6 |
| 20260508115802 | 6 | 186 | 3.2 | 4.8 | 0.00 | 0.00 | 0.00 | 26 | 1022.4 |
| 20260508115300 | 6 | 192 | 4.8 | 4.8 | 0.00 | 0.00 | 0.00 | 26 | 1022.5 |
| 20260508114756 | 7 | 195 | 3.2 | 3.2 | 0.00 | 0.00 | 0.00 | 25 | 1022.4 |
| 20260508114253 | 7 | 197 | 3.2 | 3.2 | 0.00 | 0.00 | 0.00 | 24 | 1022.5 |
| 20260508113749 | 8 | 187 | 1.6 | 3.2 | 0.00 | 0.00 | 0.00 | 24 | 1022.5 |
| 20260508113248 | 7 | 175 | 3.2 | 3.2 | 0.00 | 0.00 | 0.00 | 24 | 1022.5 |
| 20260508112744 | 7 | 199 | 1.6 | 3.2 | 0.00 | 0.00 | 0.00 | 24 | 1022.5 |
| 20260508112241 | 8 | 194 | 1.6 | 3.2 | 0.00 | 0.00 | 0.00 | 22 | 1022.5 |
| 20260508111737 | 9 | 168 | 3.2 | 4.8 | 0.00 | 0.00 | 0.00 | 22 | 1022.5 |
| 20260508111235 | 8 | 143 | 4.8 | 6.4 | 0.00 | 0.00 | 0.00 | 22 | 1022.5 |
| 20260508110732 | 9 | 175 | 4.8 | 6.4 | 0.00 | 0.00 | 0.00 | 21 | 1022.6 |
| 20260508110230 | 10 | 160 | 4.8 | 9.7 | 0.00 | 0.00 | 0.00 | 21 | 1022.6 |
| 20260508105729 | 10 | 163 | 6.4 | 9.7 | 0.00 | 0.00 | 0.00 | 20 | 1022.5 |
| 20260508105226 | 8 | 148 | 4.8 | 4.8 | 0.00 | 0.00 | 0.00 | 21 | 1022.8 |
| 20260508104724 | 8 | 174 | 3.2 | 4.8 | 0.00 | 0.00 | 0.00 | 22 | 1022.5 |
| 20260508104220 | 8 | 191 | 1.6 | 3.2 | 0.00 | 0.00 | 0.00 | 22 | 1022.6 |
| 20260508103718 | 8 | 183 | 1.6 | 3.2 | 0.00 | 0.00 | 0.00 | 21 | 1022.6 |
| 20260508103215 | 8 | 179 | 3.2 | 4.8 | 0.00 | 0.00 | 0.00 | 21 | 1022.5 |
| 20260508102712 | 8 | 173 | 3.2 | 4.8 | 0.00 | 0.00 | 0.00 | 21 | 1022.8 |
| 20260508102210 | 9 | 153 | 3.2 | 4.8 | 0.00 | 0.00 | 0.00 | 21 | 1022.6 |
| 20260508101707 | 9 | 160 | 4.8 | 9.7 | 0.00 | 0.00 | 0.00 | 21 | 1022.4 |
| 20260508101205 | 10 | 176 | 3.2 | 6.4 | 0.00 | 0.00 | 0.00 | 21 | 1022.5 |
| 20260508100702 | 10 | 140 | 8.0 | 9.7 | 0.00 | 0.00 | 0.00 | 20 | 1022.4 |
| 20260508100200 | 10 | 174 | 4.8 | 9.7 | 0.00 | 0.00 | 0.00 | 21 | 1022.4 |
| 20260508095655 | 9 | 138 | 6.4 | 9.7 | 0.00 | 0.00 | 0.00 | 21 | 1022.5 |
| 20260508095153 | 9 | 155 | 3.2 | 4.8 | 0.00 | 0.00 | 0.00 | 21 | 1022.3 |
| 20260508094649 | 9 | 166 | 3.2 | 6.4 | 0.00 | 0.00 | 0.00 | 21 | 1022.6 |
| 20260508094146 | 10 | 151 | 4.8 | 6.4 | 0.00 | 0.00 | 0.00 | 21 | 1022.3 |
| 20260508093644 | 10 | 184 | 4.8 | 6.4 | 0.00 | 0.00 | 0.00 | 20 | 1022.4 |
| 20260508093141 | 10 | 153 | 6.4 | 9.7 | 0.00 | 0.00 | 0.00 | 20 | 1022.3 |
| 20260508092638 | 8 | 177 | 6.4 | 12.9 | 0.00 | 0.00 | 0.00 | 21 | 1022.4 |
| 20260508092137 | 8 | 170 | 4.8 | 6.4 | 0.00 | 0.00 | 0.00 | 22 | 1022.6 |
| 20260508091634 | 8 | 172 | 3.2 | 6.4 | 0.00 | 0.00 | 0.00 | 21 | 1022.5 |
| 20260508091131 | 8 | 183 | 4.8 | 6.4 | 0.00 | 0.00 | 0.00 | 22 | 1022.5 |
| 20260508090629 | 8 | 193 | 4.8 | 6.4 | 0.00 | 0.00 | 0.00 | 22 | 1022.6 |
| 20260508090126 | 8 | 160 | 4.8 | 6.4 | 0.00 | 0.00 | 0.00 | 22 | 1022.4 |
| 20260508085622 | 8 | 174 | 4.8 | 6.4 | 0.00 | 0.00 | 0.00 | 22 | 1022.8 |
| 20260508085119 | 7 | 174 | 4.8 | 6.4 | 0.00 | 0.00 | 0.00 | 22 | 1022.6 |
| 20260508084616 | 6 | 175 | 3.2 | 4.8 | 0.00 | 0.00 | 0.00 | 24 | 1022.6 |
| 20260508084113 | 5 | 185 | 4.8 | 4.8 | 0.00 | 0.00 | 0.00 | 24 | 1022.6 |
| 20260508083610 | 6 | 184 | 3.2 | 4.8 | 0.00 | 0.00 | 0.00 | 24 | 1022.5 |
| 20260508083107 | 5 | 197 | 3.2 | 3.2 | 0.00 | 0.00 | 0.00 | 24 | 1022.5 |
| 20260508082603 | 5 | 195 | 3.2 | 3.2 | 0.00 | 0.00 | 0.00 | 24 | 1022.6 |
| 20260508082100 | 6 | 185 | 3.2 | 3.2 | 0.00 | 0.00 | 0.00 | 23 | 1022.6 |
| 20260508081552 | 5 | 183 | 3.2 | 3.2 | 0.00 | 0.00 | 0.00 | 24 | 1022.9 |
| 20260508081047 | 5 | 193 | 1.6 | 3.2 | 0.00 | 0.00 | 0.00 | 24 | 1022.9 |
| 20260508080546 | 5 | 190 | 3.2 | 4.8 | 0.00 | 0.00 | 0.00 | 24 | 1022.9 |
| 20260508080043 | 6 | 192 | 3.2 | 4.8 | 0.00 | 0.00 | 0.00 | 23 | 1022.8 |
| 20260508075539 | 7 | 189 | 3.2 | 3.2 | 0.00 | 0.00 | 0.00 | 22 | 1022.9 |
| 20260508075037 | 8 | 189 | 3.2 | 3.2 | 0.00 | 0.00 | 0.00 | 21 | 1023.0 |
| 20260508074534 | 7 | 173 | 3.2 | 3.2 | 0.00 | 0.00 | 0.00 | 21 | 1022.9 |
| 20260508074031 | 7 | 191 | 3.2 | 3.2 | 0.00 | 0.00 | 0.00 | 21 | 1023.0 |
| 20260508073528 | 7 | 182 | 3.2 | 4.8 | 0.00 | 0.00 | 0.00 | 21 | 1023.1 |
| 20260508073026 | 7 | 184 | 3.2 | 4.8 | 0.00 | 0.00 | 0.00 | 21 | 1023.1 |
| 20260508072521 | 6 | 174 | 4.8 | 4.8 | 0.00 | 0.00 | 0.00 | 22 | 1023.1 |
| 20260508072019 | 6 | 188 | 3.2 | 4.8 | 0.00 | 0.00 | 0.00 | 22 | 1022.9 |
| 20260508071517 | 6 | 187 | 3.2 | 3.2 | 0.00 | 0.00 | 0.00 | 22 | 1023.2 |
| 20260508071014 | 5 | 181 | 3.2 | 3.2 | 0.00 | 0.00 | 0.00 | 24 | 1023.1 |
| 20260508070512 | 3 | 183 | 3.2 | 3.2 | 0.00 | 0.00 | 0.00 | 25 | 1023.1 |
| 20260508070010 | 4 | 193 | 3.2 | 4.8 | 0.00 | 0.00 | 0.00 | 24 | 1023.1 |
| 20260508065507 | 5 | 196 | 3.2 | 4.8 | 0.00 | 0.00 | 0.00 | 23 | 1023.1 |
| 20260508065006 | 7 | 195 | 3.2 | 3.2 | 0.00 | 0.00 | 0.00 | 22 | 1023.2 |
| 20260508064503 | 7 | 190 | 1.6 | 3.2 | 0.00 | 0.00 | 0.00 | 22 | 1023.1 |
| 20260508064000 | 7 | 185 | 3.2 | 4.8 | 0.00 | 0.00 | 0.00 | 22 | 1023.1 |
| 20260508063457 | 7 | 180 | 1.6 | 3.2 | 0.00 | 0.00 | 0.00 | 21 | 1023.1 |
| 20260508062955 | 6 | 183 | 3.2 | 3.2 | 0.00 | 0.00 | 0.00 | 22 | 1023.1 |
| 20260508062453 | 5 | 188 | 1.6 | 3.2 | 0.00 | 0.00 | 0.00 | 24 | 1023.2 |
| 20260508061949 | 5 | 194 | 1.6 | 3.2 | 0.00 | 0.00 | 0.00 | 24 | 1023.0 |
| 20260508061447 | 5 | 192 | 1.6 | 3.2 | 0.00 | 0.00 | 0.00 | 23 | 1023.4 |
| 20260508060943 | 5 | 192 | 1.6 | 1.6 | 0.00 | 0.00 | 0.00 | 24 | 1023.1 |
| 20260508060441 | 6 | 192 | 3.2 | 3.2 | 0.00 | 0.00 | 0.00 | 23 | 1023.4 |
| 20260508055936 | 5 | 178 | 3.2 | 4.8 | 0.00 | 0.00 | 0.00 | 23 | 1023.1 |
| 20260508055434 | 6 | 197 | 3.2 | 3.2 | 0.00 | 0.00 | 0.00 | 23 | 1023.1 |
| 20260508054929 | 6 | 193 | 0.0 | 1.6 | 0.00 | 0.00 | 0.00 | 23 | 1023.4 |
| 20260508054427 | 7 | 209 | 0.0 | 0.0 | 0.00 | 0.00 | 0.00 | 22 | 1023.4 |
| 20260508053924 | 8 | 166 | 3.2 | 3.2 | 0.00 | 0.00 | 0.00 | 21 | 1023.1 |
| 20260508053421 | 7 | 186 | 1.6 | 3.2 | 0.00 | 0.00 | 0.00 | 21 | 1023.2 |
| 20260508052919 | 7 | 170 | 3.2 | 4.8 | 0.00 | 0.00 | 0.00 | 21 | 1023.4 |
| 20260508052416 | 7 | 186 | 3.2 | 3.2 | 0.00 | 0.00 | 0.00 | 21 | 1023.4 |
| 20260508051912 | 7 | 177 | 3.2 | 3.2 | 0.00 | 0.00 | 0.00 | 21 | 1023.4 |
| 20260508051408 | 7 | 177 | 3.2 | 3.2 | 0.00 | 0.00 | 0.00 | 21 | 1023.4 |
| 20260508050904 | 6 | 194 | 1.6 | 3.2 | 0.00 | 0.00 | 0.00 | 22 | 1023.5 |
| 20260508050401 | 6 | 195 | 1.6 | 3.2 | 0.00 | 0.00 | 0.00 | 22 | 1023.2 |
| 20260508045857 | 6 | 196 | 3.2 | 3.2 | 0.00 | 0.00 | 0.00 | 21 | 1023.6 |
| 20260508045355 | 6 | 190 | 3.2 | 3.2 | 0.00 | 0.00 | 0.00 | 21 | 1023.2 |
| 20260508044852 | 6 | 191 | 3.2 | 4.8 | 0.00 | 0.00 | 0.00 | 21 | 1023.2 |
| 20260508044348 | 7 | 188 | 3.2 | 4.8 | 0.00 | 0.00 | 0.00 | 21 | 1023.2 |
| 20260508043844 | 7 | 195 | 4.8 | 4.8 | 0.00 | 0.00 | 0.00 | 21 | 1023.4 |
| 20260508043342 | 7 | 194 | 4.8 | 4.8 | 0.00 | 0.00 | 0.00 | 21 | 1023.2 |
| 20260508042838 | 6 | 198 | 4.8 | 4.8 | 0.00 | 0.00 | 0.00 | 21 | 1023.5 |
| 20260508042336 | 7 | 193 | 3.2 | 4.8 | 0.00 | 0.00 | 0.00 | 21 | 1023.4 |
| 20260508041833 | 7 | 199 | 3.2 | 4.8 | 0.00 | 0.00 | 0.00 | 21 | 1023.2 |
| 20260508041329 | 7 | 195 | 4.8 | 4.8 | 0.00 | 0.00 | 0.00 | 21 | 1023.4 |
| 20260508040826 | 7 | 198 | 4.8 | 4.8 | 0.00 | 0.00 | 0.00 | 21 | 1023.6 |
| 20260508040323 | 7 | 195 | 4.8 | 4.8 | 0.00 | 0.00 | 0.00 | 20 | 1023.5 |
| 20260508035820 | 7 | 194 | 4.8 | 4.8 | 0.00 | 0.00 | 0.00 | 20 | 1023.4 |
| 20260508035318 | 8 | 191 | 4.8 | 4.8 | 0.00 | 0.00 | 0.00 | 20 | 1023.2 |
| 20260508034814 | 8 | 195 | 4.8 | 4.8 | 0.00 | 0.00 | 0.00 | 20 | 1023.2 |
| 20260508034312 | 8 | 194 | 4.8 | 4.8 | 0.00 | 0.00 | 0.00 | 20 | 1023.2 |
| 20260508033808 | 9 | 196 | 3.2 | 4.8 | 0.00 | 0.00 | 0.00 | 20 | 1023.0 |
| 20260508033307 | 9 | 194 | 4.8 | 4.8 | 0.00 | 0.00 | 0.00 | 19 | 1023.1 |
| 20260508032804 | 10 | 192 | 4.8 | 6.4 | 0.00 | 0.00 | 0.00 | 19 | 1023.0 |
| 20260508032301 | 9 | 197 | 6.4 | 6.4 | 0.00 | 0.00 | 0.00 | 19 | 1023.0 |
| 20260508031758 | 10 | 200 | 4.8 | 4.8 | 0.00 | 0.00 | 0.00 | 19 | 1023.2 |
| 20260508031254 | 10 | 192 | 4.8 | 4.8 | 0.00 | 0.00 | 0.00 | 19 | 1022.9 |
| 20260508030751 | 10 | 194 | 4.8 | 4.8 | 0.00 | 0.00 | 0.00 | 19 | 1022.9 |
| 20260508030248 | 10 | 199 | 4.8 | 4.8 | 0.00 | 0.00 | 0.00 | 19 | 1022.9 |
| 20260508025744 | 10 | 194 | 4.8 | 6.4 | 0.00 | 0.00 | 0.00 | 19 | 1022.6 |
| 20260508025242 | 10 | 197 | 4.8 | 4.8 | 0.00 | 0.00 | 0.00 | 19 | 1022.8 |
| 20260508024738 | 11 | 194 | 4.8 | 4.8 | 0.00 | 0.00 | 0.00 | 18 | 1022.5 |
| 20260508024235 | 11 | 196 | 4.8 | 4.8 | 0.00 | 0.00 | 0.00 | 18 | 1022.4 |
| 20260508023732 | 12 | 197 | 4.8 | 4.8 | 0.00 | 0.00 | 0.00 | 18 | 1022.5 |
| 20260508023229 | 12 | 195 | 3.2 | 3.2 | 0.00 | 0.00 | 0.00 | 17 | 1022.4 |
| 20260508022725 | 13 | 195 | 3.2 | 3.2 | 0.00 | 0.00 | 0.00 | 17 | 1022.5 |
| 20260508022221 | 14 | 195 | 3.2 | 4.8 | 0.00 | 0.00 | 0.00 | 16 | 1022.3 |
| 20260508021718 | 15 | 198 | 3.2 | 3.2 | 0.00 | 0.00 | 0.00 | 15 | 1022.4 |
| 20260508021214 | 16 | 214 | 3.2 | 4.8 | 0.00 | 0.00 | 0.00 | 15 | 1022.3 |
| 20260508020711 | 16 | 214 | 3.2 | 6.4 | 0.00 | 0.00 | 0.00 | 15 | 1022.1 |
| 20260508020208 | 17 | 220 | 1.6 | 3.2 | 0.00 | 0.00 | 0.00 | 14 | 1022.1 |
| 20260508015706 | 17 | 212 | 1.6 | 4.8 | 0.00 | 0.00 | 0.00 | 14 | 1022.3 |
| 20260508015202 | 18 | 236 | 1.6 | 6.4 | 0.00 | 0.00 | 0.00 | 14 | 1022.0 |
| 20260508014659 | 18 | 236 | 3.2 | 4.8 | 0.00 | 0.00 | 0.00 | 13 | 1022.0 |
| 20260508014155 | 18 | 191 | 6.4 | 9.7 | 0.00 | 0.00 | 0.00 | 13 | 1021.9 |
| 20260508013652 | 18 | 218 | 3.2 | 4.8 | 0.00 | 0.00 | 0.00 | 12 | 1021.9 |
| 20260508013148 | 18 | 229 | 3.2 | 9.7 | 0.00 | 0.00 | 0.00 | 12 | 1021.9 |
| 20260508012646 | 19 | 256 | 8.0 | 11.3 | 0.00 | 0.00 | 0.00 | 12 | 1021.9 |
| 20260508012143 | 19 | 225 | 3.2 | 6.4 | 0.00 | 0.00 | 0.00 | 12 | 1021.8 |
| 20260508011641 | 19 | 209 | 6.4 | 11.3 | 0.00 | 0.00 | 0.00 | 12 | 1021.8 |
| 20260508011138 | 19 | 208 | 6.4 | 9.7 | 0.00 | 0.00 | 0.00 | 12 | 1021.9 |
| 20260508010635 | 19 | 205 | 4.8 | 9.7 | 0.00 | 0.00 | 0.00 | 12 | 1021.8 |
| 20260508010133 | 19 | 258 | 8.0 | 11.3 | 0.00 | 0.00 | 0.00 | 12 | 1021.8 |
| 20260508005630 | 20 | 226 | 8.0 | 11.3 | 0.00 | 0.00 | 0.00 | 11 | 1021.5 |
| 20260508005126 | 20 | 241 | 9.7 | 14.5 | 0.00 | 0.00 | 0.00 | 11 | 1021.7 |
| 20260508004622 | 20 | 220 | 6.4 | 11.3 | 0.00 | 0.00 | 0.00 | 11 | 1021.7 |
| 20260508004119 | 20 | 218 | 9.7 | 14.5 | 0.00 | 0.00 | 0.00 | 12 | 1021.8 |
| 20260508003615 | 20 | 218 | 4.8 | 11.3 | 0.00 | 0.00 | 0.00 | 11 | 1021.7 |
| 20260508003113 | 20 | 243 | 8.0 | 14.5 | 0.00 | 0.00 | 0.00 | 11 | 1021.7 |
| 20260508002609 | 20 | 248 | 9.7 | 12.9 | 0.00 | 0.00 | 0.00 | 10 | 1021.5 |
| 20260508002107 | 20 | 236 | 8.0 | 14.5 | 0.00 | 0.00 | 0.00 | 10 | 1021.7 |
| 20260508001602 | 20 | 240 | 8.0 | 12.9 | 0.00 | 0.00 | 0.00 | 10 | 1021.8 |
| 20260508001058 | 20 | 261 | 6.4 | 12.9 | 0.00 | 0.00 | 0.00 | 10 | 1021.7 |
| 20260508000554 | 20 | 205 | 4.8 | 11.3 | 0.00 | 0.00 | 0.00 | 10 | 1021.7 |
| 20260508000052 | 20 | 221 | 6.4 | 11.3 | 0.00 | 0.00 | 0.00 | 10 | 1021.7 |
| 20260507235548 | 20 | 221 | 1.6 | 6.4 | 0.00 | 0.00 | 0.00 | 10 | 1021.8 |
| 20260507235046 | 20 | 227 | 8.0 | 14.5 | 0.00 | 0.00 | 0.00 | 11 | 1021.7 |
| 20260507234542 | 20 | 284 | 8.0 | 14.5 | 0.00 | 0.00 | 0.00 | 11 | 1021.8 |
| 20260507234039 | 20 | 224 | 8.0 | 14.5 | 0.00 | 0.00 | 0.00 | 11 | 1021.9 |
| 20260507233535 | 20 | 307 | 6.4 | 9.7 | 0.00 | 0.00 | 0.00 | 12 | 1021.7 |
| 20260507233034 | 20 | 302 | 11.3 | 14.5 | 0.00 | 0.00 | 0.00 | 12 | 1021.9 |
| 20260507232530 | 21 | 206 | 4.8 | 11.3 | 0.00 | 0.00 | 0.00 | 12 | 1021.9 |
| 20260507232028 | 20 | 271 | 11.3 | 12.9 | 0.00 | 0.00 | 0.00 | 12 | 1021.8 |
| 20260507231524 | 20 | 234 | 4.8 | 17.7 | 0.00 | 0.00 | 0.00 | 12 | 1021.7 |
| 20260507231021 | 20 | 260 | 6.4 | 14.5 | 0.00 | 0.00 | 0.00 | 12 | 1021.7 |
| 20260507230518 | 20 | 273 | 6.4 | 14.5 | 0.00 | 0.00 | 0.00 | 12 | 1021.9 |
| 20260507230014 | 21 | 346 | 8.0 | 9.7 | 0.00 | 0.00 | 0.00 | 12 | 1021.9 |
| 20260507225510 | 20 | 238 | 9.7 | 16.1 | 0.00 | 0.00 | 0.00 | 12 | 1021.8 |
| 20260507225006 | 20 | 186 | 3.2 | 16.1 | 0.00 | 0.00 | 0.00 | 12 | 1021.8 |
| 20260507224502 | 20 | 250 | 12.9 | 20.9 | 0.00 | 0.00 | 0.00 | 12 | 1021.7 |
| 20260507223958 | 21 | 241 | 14.5 | 24.1 | 0.00 | 0.00 | 0.00 | 12 | 1021.9 |
| 20260507223454 | 21 | 219 | 0.0 | 6.4 | 0.00 | 0.00 | 0.00 | 13 | 1021.9 |
| 20260507222952 | 20 | 249 | 9.7 | 12.9 | 0.00 | 0.00 | 0.00 | 13 | 1022.0 |
| 20260507222448 | 20 | 249 | 6.4 | 9.7 | 0.00 | 0.00 | 0.00 | 13 | 1022.1 |
| 20260507221945 | 20 | 312 | 3.2 | 9.7 | 0.00 | 0.00 | 0.00 | 13 | 1021.9 |
| 20260507221442 | 20 | 231 | 4.8 | 6.4 | 0.00 | 0.00 | 0.00 | 13 | 1022.0 |
| 20260507220938 | 20 | 269 | 11.3 | 14.5 | 0.00 | 0.00 | 0.00 | 13 | 1021.9 |
| 20260507220436 | 20 | 271 | 11.3 | 14.5 | 0.00 | 0.00 | 0.00 | 13 | 1022.1 |
| 20260507215932 | 20 | 233 | 6.4 | 12.9 | 0.00 | 0.00 | 0.00 | 12 | 1022.3 |
| 20260507215429 | 20 | 238 | 11.3 | 12.9 | 0.00 | 0.00 | 0.00 | 12 | 1022.3 |
| 20260507214926 | 21 | 294 | 11.3 | 16.1 | 0.00 | 0.00 | 0.00 | 12 | 1022.4 |
| 20260507214424 | 20 | 206 | 9.7 | 16.1 | 0.00 | 0.00 | 0.00 | 12 | 1022.5 |
| 20260507213919 | 21 | 231 | 11.3 | 20.9 | 0.00 | 0.00 | 0.00 | 12 | 1022.6 |
| 20260507213416 | 20 | 244 | 8.0 | 16.1 | 0.00 | 0.00 | 0.00 | 12 | 1022.4 |
| 20260507212913 | 20 | 235 | 4.8 | 12.9 | 0.00 | 0.00 | 0.00 | 12 | 1022.5 |
| 20260507212409 | 20 | 267 | 6.4 | 12.9 | 0.00 | 0.00 | 0.00 | 12 | 1022.8 |
| 20260507211906 | 20 | 200 | 3.2 | 6.4 | 0.00 | 0.00 | 0.00 | 13 | 1022.9 |
| 20260507211402 | 20 | 250 | 8.0 | 11.3 | 0.00 | 0.00 | 0.00 | 13 | 1022.8 |
| 20260507210859 | 20 | 226 | 11.3 | 22.5 | 0.00 | 0.00 | 0.00 | 13 | 1022.9 |
| 20260507210356 | 20 | 347 | 3.2 | 9.7 | 0.00 | 0.00 | 0.00 | 13 | 1022.9 |
| 20260507205853 | 21 | 241 | 11.3 | 16.1 | 0.00 | 0.00 | 0.00 | 13 | 1022.9 |
| 20260507205349 | 20 | 233 | 4.8 | 11.3 | 0.00 | 0.00 | 0.00 | 13 | 1023.0 |
| 20260507204846 | 21 | 228 | 4.8 | 14.5 | 0.00 | 0.00 | 0.00 | 14 | 1022.9 |
| 20260507204343 | 20 | 197 | 1.6 | 12.9 | 0.00 | 0.00 | 0.00 | 15 | 1023.0 |
| 20260507203841 | 20 | 178 | 6.4 | 11.3 | 0.00 | 0.00 | 0.00 | 15 | 1023.1 |
| 20260507203338 | 20 | 226 | 14.5 | 22.5 | 0.00 | 0.00 | 0.00 | 15 | 1022.9 |
| 20260507202834 | 18 | 12 | 1.6 | 9.7 | 0.00 | 0.00 | 0.00 | 15 | 1023.4 |
| 20260507202331 | 18 | 232 | 6.4 | 14.5 | 0.00 | 0.00 | 0.00 | 15 | 1023.2 |
| 20260507201826 | 19 | 297 | 8.0 | 14.5 | 0.00 | 0.00 | 0.00 | 15 | 1023.5 |
| 20260507201322 | 19 | 254 | 6.4 | 11.3 | 0.00 | 0.00 | 0.00 | 14 | 1023.4 |
| 20260507200819 | 18 | 331 | 6.4 | 11.3 | 0.00 | 0.00 | 0.00 | 14 | 1023.5 |
| 20260507200315 | 19 | 258 | 3.2 | 14.5 | 0.00 | 0.00 | 0.00 | 14 | 1023.6 |
| 20260507195811 | 18 | 246 | 4.8 | 11.3 | 0.00 | 0.00 | 0.00 | 14 | 1023.7 |
| 20260507195308 | 18 | 247 | 9.7 | 16.1 | 0.00 | 0.00 | 0.00 | 14 | 1023.7 |
| 20260507194806 | 19 | 335 | 6.4 | 14.5 | 0.00 | 0.00 | 0.00 | 14 | 1023.6 |
| 20260507194302 | 18 | 271 | 8.0 | 11.3 | 0.00 | 0.00 | 0.00 | 15 | 1023.6 |
| 20260507193758 | 18 | 302 | 6.4 | 14.5 | 0.00 | 0.00 | 0.00 | 15 | 1023.9 |
| 20260507193255 | 19 | 305 | 6.4 | 11.3 | 0.00 | 0.00 | 0.00 | 14 | 1024.0 |
| 20260507192751 | 17 | 240 | 9.7 | 12.9 | 0.00 | 0.00 | 0.00 | 15 | 1024.1 |
| 20260507192248 | 18 | 278 | 4.8 | 9.7 | 0.00 | 0.00 | 0.00 | 14 | 1024.3 |
| 20260507191744 | 18 | 214 | 1.6 | 12.9 | 0.00 | 0.00 | 0.00 | 14 | 1024.3 |
| 20260507191241 | 17 | 232 | 4.8 | 11.3 | 0.00 | 0.00 | 0.00 | 15 | 1024.3 |
| 20260507190738 | 18 | 338 | 11.3 | 16.1 | 0.00 | 0.00 | 0.00 | 14 | 1024.5 |
| 20260507190236 | 17 | 224 | 4.8 | 6.4 | 0.00 | 0.00 | 0.00 | 16 | 1024.5 |
| 20260507185735 | 17 | 340 | 11.3 | 16.1 | 0.00 | 0.00 | 0.00 | 16 | 1024.6 |
| 20260507185231 | 17 | 1 | 8.0 | 16.1 | 0.00 | 0.00 | 0.00 | 16 | 1024.6 |
| 20260507184729 | 18 | 330 | 9.7 | 14.5 | 0.00 | 0.00 | 0.00 | 16 | 1024.6 |
| 20260507184227 | 17 | 294 | 6.4 | 14.5 | 0.00 | 0.00 | 0.00 | 16 | 1024.6 |
| 20260507183723 | 16 | 275 | 11.3 | 14.5 | 0.00 | 0.00 | 0.00 | 15 | 1024.8 |
| 20260507183220 | 17 | 261 | 3.2 | 12.9 | 0.00 | 0.00 | 0.00 | 17 | 1025.1 |
| 20260507182717 | 16 | 225 | 6.4 | 16.1 | 0.00 | 0.00 | 0.00 | 17 | 1024.8 |
| 20260507182212 | 16 | 256 | 9.7 | 12.9 | 0.00 | 0.00 | 0.00 | 17 | 1024.8 |
| 20260507181709 | 17 | 260 | 3.2 | 11.3 | 0.00 | 0.00 | 0.00 | 16 | 1024.8 |
| 20260507181206 | 16 | 311 | 11.3 | 12.9 | 0.00 | 0.00 | 0.00 | 17 | 1025.1 |
| 20260507180702 | 16 | 297 | 4.8 | 9.7 | 0.00 | 0.00 | 0.00 | 16 | 1025.2 |
| 20260507180159 | 16 | 12 | 4.8 | 14.5 | 0.00 | 0.00 | 0.00 | 17 | 1025.2 |
| 20260507175655 | 16 | 195 | 3.2 | 14.5 | 0.00 | 0.00 | 0.00 | 16 | 1025.3 |
| 20260507175152 | 16 | 348 | 3.2 | 12.9 | 0.00 | 0.00 | 0.00 | 16 | 1025.1 |
| 20260507174649 | 17 | 277 | 9.7 | 12.9 | 0.00 | 0.00 | 0.00 | 16 | 1025.2 |
| 20260507174148 | 16 | 298 | 1.6 | 9.7 | 0.00 | 0.00 | 0.00 | 17 | 1025.4 |
| 20260507173644 | 16 | 91 | 4.8 | 16.1 | 0.00 | 0.00 | 0.00 | 17 | 1025.3 |
| 20260507173141 | 16 | 291 | 6.4 | 11.3 | 0.00 | 0.00 | 0.00 | 18 | 1025.4 |
| 20260507172637 | 16 | 331 | 9.7 | 12.9 | 0.00 | 0.00 | 0.00 | 17 | 1025.4 |
| 20260507172135 | 16 | 288 | 4.8 | 11.3 | 0.00 | 0.00 | 0.00 | 18 | 1025.4 |
| 20260507171629 | 16 | 21 | 11.3 | 16.1 | 0.00 | 0.00 | 0.00 | 18 | 1025.4 |
| 20260507171127 | 15 | 316 | 12.9 | 16.1 | 0.00 | 0.00 | 0.00 | 19 | 1025.4 |
| 20260507170624 | 15 | 58 | 8.0 | 12.9 | 0.00 | 0.00 | 0.00 | 19 | 1025.3 |
| 20260507170121 | 15 | 295 | 11.3 | 17.7 | 0.00 | 0.00 | 0.00 | 19 | 1025.6 |
| 20260507165616 | 15 | 309 | 4.8 | 17.7 | 0.00 | 0.00 | 0.00 | 19 | 1025.3 |
| 20260507165113 | 15 | 307 | 4.8 | 14.5 | 0.00 | 0.00 | 0.00 | 19 | 1025.8 |
| 20260507164609 | 15 | 296 | 6.4 | 12.9 | 0.00 | 0.00 | 0.00 | 19 | 1025.4 |
| 20260507164106 | 16 | 222 | 9.7 | 16.1 | 0.00 | 0.00 | 0.00 | 19 | 1025.6 |
| 20260507163604 | 15 | 285 | 8.0 | 11.3 | 0.00 | 0.00 | 0.00 | 21 | 1025.4 |
| 20260507163102 | 14 | 65 | 12.9 | 17.7 | 0.00 | 0.00 | 0.00 | 22 | 1025.6 |
| 20260507162601 | 15 | 144 | 4.8 | 12.9 | 0.00 | 0.00 | 0.00 | 23 | 1025.7 |
| 20260507162059 | 15 | 350 | 4.8 | 12.9 | 0.00 | 0.00 | 0.00 | 21 | 1025.6 |
| 20260507161555 | 15 | 11 | 6.4 | 14.5 | 0.00 | 0.00 | 0.00 | 22 | 1025.6 |
| 20260507161051 | 13 | 226 | 8.0 | 14.5 | 0.00 | 0.00 | 0.00 | 22 | 1025.8 |
| 20260507160548 | 13 | 311 | 8.0 | 12.9 | 0.00 | 0.00 | 0.00 | 22 | 1025.6 |
| 20260507160044 | 14 | 271 | 11.3 | 14.5 | 0.00 | 0.00 | 0.00 | 22 | 1025.6 |
| 20260507155539 | 13 | 293 | 8.0 | 12.9 | 0.00 | 0.00 | 0.00 | 23 | 1025.9 |
| 20260507155037 | 13 | 354 | 6.4 | 12.9 | 0.00 | 0.00 | 0.00 | 24 | 1026.0 |
| 20260507154534 | 14 | 301 | 6.4 | 16.1 | 0.00 | 0.00 | 0.00 | 23 | 1025.8 |
| 20260507154031 | 13 | 321 | 11.3 | 14.5 | 0.00 | 0.00 | 0.00 | 23 | 1025.8 |
| 20260507153528 | 13 | 332 | 11.3 | 14.5 | 0.00 | 0.00 | 0.00 | 23 | 1025.6 |
| 20260507153024 | 13 | 43 | 6.4 | 17.7 | 0.00 | 0.00 | 0.00 | 24 | 1025.7 |